sensor_id;sensor_type;location;lat;lon;timestamp;temperature;humidity
28524;DHT22;15734;50.904;6.922;2023-02-03T00:01:31;9.70;99.90
28524;DHT22;15734;50.904;6.922;2023-02-03T00:03:57;9.70;99.90
28524;DHT22;15734;50.904;6.922;2023-02-03T00:06:22;9.60;99.90
28524;DHT22;15734;50.904;6.922;2023-02-03T00:08:48;9.60;99.90
28524;DHT22;15734;50.904;6.922;2023-02-03T00:11:18;9.70;99.90
28524;DHT22;15734;50.904;6.922;2023-02-03T00:13:44;9.70;99.90
28524;DHT22;15734;50.904;6.922;2023-02-03T00:16:09;9.70;99.90
28524;DHT22;15734;50.904;6.922;2023-02-03T00:18:34;9.70;99.90
28524;DHT22;15734;50.904;6.922;2023-02-03T00:21:00;9.70;99.90
28524;DHT22;15734;50.904;6.922;2023-02-03T00:23:25;9.70;99.90
28524;DHT22;15734;50.904;6.922;2023-02-03T00:25:54;9.70;99.90
28524;DHT22;15734;50.904;6.922;2023-02-03T00:28:19;9.70;99.90
28524;DHT22;15734;50.904;6.922;2023-02-03T00:30:45;9.70;99.90
28524;DHT22;15734;50.904;6.922;2023-02-03T00:33:10;9.70;99.90
28524;DHT22;15734;50.904;6.922;2023-02-03T00:35:36;9.70;99.90
28524;DHT22;15734;50.904;6.922;2023-02-03T00:38:02;9.70;99.90
28524;DHT22;15734;50.904;6.922;2023-02-03T00:40:27;9.70;99.90
28524;DHT22;15734;50.904;6.922;2023-02-03T00:42:54;9.70;99.90
28524;DHT22;15734;50.904;6.922;2023-02-03T00:45:19;9.70;99.90
28524;DHT22;15734;50.904;6.922;2023-02-03T00:47:46;9.80;99.90
28524;DHT22;15734;50.904;6.922;2023-02-03T00:50:12;9.80;99.90
28524;DHT22;15734;50.904;6.922;2023-02-03T00:52:37;9.80;99.90
28524;DHT22;15734;50.904;6.922;2023-02-03T00:55:03;9.80;99.90
28524;DHT22;15734;50.904;6.922;2023-02-03T00:57:29;9.80;99.90
28524;DHT22;15734;50.904;6.922;2023-02-03T00:59:54;9.80;99.90
28524;DHT22;15734;50.904;6.922;2023-02-03T01:02:20;9.80;99.90
28524;DHT22;15734;50.904;6.922;2023-02-03T01:04:46;9.80;99.90
28524;DHT22;15734;50.904;6.922;2023-02-03T01:07:11;9.70;99.90
28524;DHT22;15734;50.904;6.922;2023-02-03T01:09:36;9.80;99.90
28524;DHT22;15734;50.904;6.922;2023-02-03T01:12:02;9.80;99.90
28524;DHT22;15734;50.904;6.922;2023-02-03T01:14:28;9.80;99.90
28524;DHT22;15734;50.904;6.922;2023-02-03T01:16:53;9.80;99.90
28524;DHT22;15734;50.904;6.922;2023-02-03T01:19:19;9.90;99.90
28524;DHT22;15734;50.904;6.922;2023-02-03T01:21:44;9.90;99.90
28524;DHT22;15734;50.904;6.922;2023-02-03T01:24:10;9.90;99.90
28524;DHT22;15734;50.904;6.922;2023-02-03T01:26:35;9.90;99.90
28524;DHT22;15734;50.904;6.922;2023-02-03T01:29:01;9.80;99.90
28524;DHT22;15734;50.904;6.922;2023-02-03T01:31:27;9.90;99.90
28524;DHT22;15734;50.904;6.922;2023-02-03T01:33:53;9.90;99.90
28524;DHT22;15734;50.904;6.922;2023-02-03T01:36:19;9.90;99.90
28524;DHT22;15734;50.904;6.922;2023-02-03T01:38:45;9.90;99.90
28524;DHT22;15734;50.904;6.922;2023-02-03T01:41:12;9.90;99.90
28524;DHT22;15734;50.904;6.922;2023-02-03T01:43:39;9.90;99.90
28524;DHT22;15734;50.904;6.922;2023-02-03T01:46:40;9.90;99.90
28524;DHT22;15734;50.904;6.922;2023-02-03T01:49:02;9.90;99.90
28524;DHT22;15734;50.904;6.922;2023-02-03T01:51:29;9.90;99.90
28524;DHT22;15734;50.904;6.922;2023-02-03T01:53:55;9.90;99.90
28524;DHT22;15734;50.904;6.922;2023-02-03T01:56:21;9.90;99.90
28524;DHT22;15734;50.904;6.922;2023-02-03T01:58:48;9.90;99.90
28524;DHT22;15734;50.904;6.922;2023-02-03T02:01:13;9.90;99.90
28524;DHT22;15734;50.904;6.922;2023-02-03T02:03:49;9.80;99.90
28524;DHT22;15734;50.904;6.922;2023-02-03T02:06:16;9.80;99.90
28524;DHT22;15734;50.904;6.922;2023-02-03T02:08:43;9.90;99.90
28524;DHT22;15734;50.904;6.922;2023-02-03T02:11:09;9.90;99.90
28524;DHT22;15734;50.904;6.922;2023-02-03T02:13:34;9.90;99.90
28524;DHT22;15734;50.904;6.922;2023-02-03T02:26:44;9.80;99.90
28524;DHT22;15734;50.904;6.922;2023-02-03T02:29:18;9.80;99.90
28524;DHT22;15734;50.904;6.922;2023-02-03T02:31:52;9.80;99.90
28524;DHT22;15734;50.904;6.922;2023-02-03T02:37:08;9.80;99.90
28524;DHT22;15734;50.904;6.922;2023-02-03T02:42:10;9.80;99.90
28524;DHT22;15734;50.904;6.922;2023-02-03T02:44:40;9.80;99.90
28524;DHT22;15734;50.904;6.922;2023-02-03T02:47:09;9.70;99.90
28524;DHT22;15734;50.904;6.922;2023-02-03T02:52:05;9.70;99.90
28524;DHT22;15734;50.904;6.922;2023-02-03T02:54:32;9.70;99.90
28524;DHT22;15734;50.904;6.922;2023-02-03T02:56:59;9.80;99.90
28524;DHT22;15734;50.904;6.922;2023-02-03T02:59:26;9.80;99.90
28524;DHT22;15734;50.904;6.922;2023-02-03T03:01:51;9.80;99.90
28524;DHT22;15734;50.904;6.922;2023-02-03T03:04:18;9.80;99.90
28524;DHT22;15734;50.904;6.922;2023-02-03T03:09:15;9.80;99.90
28524;DHT22;15734;50.904;6.922;2023-02-03T03:11:44;9.80;99.90
28524;DHT22;15734;50.904;6.922;2023-02-03T03:14:11;9.80;99.90
28524;DHT22;15734;50.904;6.922;2023-02-03T03:16:37;9.80;99.90
28524;DHT22;15734;50.904;6.922;2023-02-03T03:19:06;9.80;99.90
28524;DHT22;15734;50.904;6.922;2023-02-03T03:21:41;9.80;99.90
28524;DHT22;15734;50.904;6.922;2023-02-03T03:24:08;9.80;99.90
28524;DHT22;15734;50.904;6.922;2023-02-03T03:26:38;9.80;99.90
28524;DHT22;15734;50.904;6.922;2023-02-03T03:31:30;9.80;99.90
28524;DHT22;15734;50.904;6.922;2023-02-03T03:33:55;9.80;99.90
28524;DHT22;15734;50.904;6.922;2023-02-03T03:37:07;9.80;99.90
28524;DHT22;15734;50.904;6.922;2023-02-03T03:39:20;9.80;99.90
28524;DHT22;15734;50.904;6.922;2023-02-03T03:44:12;9.80;99.90
28524;DHT22;15734;50.904;6.922;2023-02-03T03:46:41;9.80;99.90
28524;DHT22;15734;50.904;6.922;2023-02-03T03:49:08;9.80;99.90
28524;DHT22;15734;50.904;6.922;2023-02-03T03:51:51;9.80;99.90
28524;DHT22;15734;50.904;6.922;2023-02-03T03:54:19;9.80;99.90
28524;DHT22;15734;50.904;6.922;2023-02-03T03:56:56;9.80;99.90
28524;DHT22;15734;50.904;6.922;2023-02-03T03:59:22;9.80;99.90
28524;DHT22;15734;50.904;6.922;2023-02-03T04:01:48;9.80;99.90
28524;DHT22;15734;50.904;6.922;2023-02-03T04:04:15;9.80;99.90
28524;DHT22;15734;50.904;6.922;2023-02-03T04:06:40;9.80;99.90
28524;DHT22;15734;50.904;6.922;2023-02-03T04:09:06;9.70;99.90
28524;DHT22;15734;50.904;6.922;2023-02-03T04:11:32;9.80;99.90
28524;DHT22;15734;50.904;6.922;2023-02-03T04:14:16;9.80;99.90
28524;DHT22;15734;50.904;6.922;2023-02-03T04:16:41;9.80;99.90
28524;DHT22;15734;50.904;6.922;2023-02-03T04:19:07;9.80;99.90
28524;DHT22;15734;50.904;6.922;2023-02-03T04:21:32;9.80;99.90
28524;DHT22;15734;50.904;6.922;2023-02-03T04:23:57;9.70;99.90
28524;DHT22;15734;50.904;6.922;2023-02-03T04:26:23;9.70;99.90
28524;DHT22;15734;50.904;6.922;2023-02-03T04:28:48;9.70;99.90
28524;DHT22;15734;50.904;6.922;2023-02-03T04:31:14;9.70;99.90
28524;DHT22;15734;50.904;6.922;2023-02-03T04:33:39;9.70;99.90
28524;DHT22;15734;50.904;6.922;2023-02-03T04:36:05;9.70;99.90
28524;DHT22;15734;50.904;6.922;2023-02-03T04:38:30;9.80;99.90
28524;DHT22;15734;50.904;6.922;2023-02-03T04:40:57;9.80;99.90
28524;DHT22;15734;50.904;6.922;2023-02-03T04:43:23;9.70;99.90
28524;DHT22;15734;50.904;6.922;2023-02-03T04:45:48;9.70;99.90
28524;DHT22;15734;50.904;6.922;2023-02-03T04:48:14;9.70;99.90
28524;DHT22;15734;50.904;6.922;2023-02-03T04:50:39;9.80;99.90
28524;DHT22;15734;50.904;6.922;2023-02-03T04:53:04;9.80;99.90
28524;DHT22;15734;50.904;6.922;2023-02-03T04:55:30;9.80;99.90
28524;DHT22;15734;50.904;6.922;2023-02-03T04:57:56;9.70;99.90
28524;DHT22;15734;50.904;6.922;2023-02-03T05:00:22;9.80;99.90
28524;DHT22;15734;50.904;6.922;2023-02-03T05:02:47;9.80;99.90
28524;DHT22;15734;50.904;6.922;2023-02-03T05:05:13;9.80;99.90
28524;DHT22;15734;50.904;6.922;2023-02-03T05:07:38;9.80;99.90
28524;DHT22;15734;50.904;6.922;2023-02-03T05:10:04;9.80;99.90
28524;DHT22;15734;50.904;6.922;2023-02-03T05:12:29;9.80;99.90
28524;DHT22;15734;50.904;6.922;2023-02-03T05:14:55;9.80;99.90
28524;DHT22;15734;50.904;6.922;2023-02-03T05:17:20;9.80;99.90
28524;DHT22;15734;50.904;6.922;2023-02-03T05:19:46;9.70;99.90
28524;DHT22;15734;50.904;6.922;2023-02-03T05:22:11;9.70;99.90
28524;DHT22;15734;50.904;6.922;2023-02-03T05:24:37;9.70;99.90
28524;DHT22;15734;50.904;6.922;2023-02-03T05:27:02;9.70;99.90
28524;DHT22;15734;50.904;6.922;2023-02-03T05:29:28;9.70;99.90
28524;DHT22;15734;50.904;6.922;2023-02-03T05:31:53;9.70;99.90
28524;DHT22;15734;50.904;6.922;2023-02-03T05:34:19;9.70;99.90
28524;DHT22;15734;50.904;6.922;2023-02-03T05:36:44;9.70;99.90
28524;DHT22;15734;50.904;6.922;2023-02-03T05:39:10;9.70;99.90
28524;DHT22;15734;50.904;6.922;2023-02-03T05:41:35;9.70;99.90
28524;DHT22;15734;50.904;6.922;2023-02-03T05:44:16;9.70;99.90
28524;DHT22;15734;50.904;6.922;2023-02-03T05:46:42;9.70;99.90
28524;DHT22;15734;50.904;6.922;2023-02-03T05:49:07;9.70;99.90
28524;DHT22;15734;50.904;6.922;2023-02-03T05:51:33;9.80;99.90
28524;DHT22;15734;50.904;6.922;2023-02-03T05:53:58;9.80;99.90
28524;DHT22;15734;50.904;6.922;2023-02-03T05:56:24;9.80;99.90
28524;DHT22;15734;50.904;6.922;2023-02-03T05:58:52;9.80;99.90
28524;DHT22;15734;50.904;6.922;2023-02-03T06:01:17;9.80;99.90
28524;DHT22;15734;50.904;6.922;2023-02-03T06:03:44;9.80;99.90
28524;DHT22;15734;50.904;6.922;2023-02-03T06:06:09;9.80;99.90
28524;DHT22;15734;50.904;6.922;2023-02-03T06:08:35;9.80;99.90
28524;DHT22;15734;50.904;6.922;2023-02-03T06:11:00;9.80;99.90
28524;DHT22;15734;50.904;6.922;2023-02-03T06:13:26;9.80;99.90
28524;DHT22;15734;50.904;6.922;2023-02-03T06:15:52;9.80;99.90
28524;DHT22;15734;50.904;6.922;2023-02-03T06:18:17;9.80;99.90
28524;DHT22;15734;50.904;6.922;2023-02-03T06:20:43;9.80;99.90
28524;DHT22;15734;50.904;6.922;2023-02-03T06:23:08;9.80;99.90
28524;DHT22;15734;50.904;6.922;2023-02-03T06:25:34;9.90;99.90
28524;DHT22;15734;50.904;6.922;2023-02-03T06:27:59;9.90;99.90
28524;DHT22;15734;50.904;6.922;2023-02-03T06:30:25;9.90;99.90
28524;DHT22;15734;50.904;6.922;2023-02-03T06:32:50;9.90;99.90
28524;DHT22;15734;50.904;6.922;2023-02-03T06:35:16;9.90;99.90
28524;DHT22;15734;50.904;6.922;2023-02-03T06:37:42;9.90;99.90
28524;DHT22;15734;50.904;6.922;2023-02-03T06:40:08;9.90;99.90
28524;DHT22;15734;50.904;6.922;2023-02-03T06:42:33;9.90;99.90
28524;DHT22;15734;50.904;6.922;2023-02-03T06:44:59;9.90;99.90
28524;DHT22;15734;50.904;6.922;2023-02-03T06:47:24;9.90;99.90
28524;DHT22;15734;50.904;6.922;2023-02-03T06:49:50;9.80;99.90
28524;DHT22;15734;50.904;6.922;2023-02-03T06:52:16;9.90;99.90
28524;DHT22;15734;50.904;6.922;2023-02-03T06:54:42;9.90;99.90
28524;DHT22;15734;50.904;6.922;2023-02-03T06:57:07;9.90;99.90
28524;DHT22;15734;50.904;6.922;2023-02-03T06:59:33;10.00;99.90
28524;DHT22;15734;50.904;6.922;2023-02-03T07:01:58;10.00;99.90
28524;DHT22;15734;50.904;6.922;2023-02-03T07:04:24;9.90;99.90
28524;DHT22;15734;50.904;6.922;2023-02-03T07:06:52;9.90;99.90
28524;DHT22;15734;50.904;6.922;2023-02-03T07:09:18;9.90;99.90
28524;DHT22;15734;50.904;6.922;2023-02-03T07:11:43;9.90;99.90
28524;DHT22;15734;50.904;6.922;2023-02-03T07:14:09;9.90;99.90
28524;DHT22;15734;50.904;6.922;2023-02-03T07:16:34;9.90;99.90
28524;DHT22;15734;50.904;6.922;2023-02-03T07:19:02;10.00;99.90
28524;DHT22;15734;50.904;6.922;2023-02-03T07:21:27;10.00;99.90
28524;DHT22;15734;50.904;6.922;2023-02-03T07:23:53;10.00;99.90
28524;DHT22;15734;50.904;6.922;2023-02-03T07:26:18;10.00;99.90
28524;DHT22;15734;50.904;6.922;2023-02-03T07:28:44;10.00;99.90
28524;DHT22;15734;50.904;6.922;2023-02-03T07:31:09;10.00;99.90
28524;DHT22;15734;50.904;6.922;2023-02-03T07:33:35;10.00;99.90
28524;DHT22;15734;50.904;6.922;2023-02-03T07:36:01;10.00;99.90
28524;DHT22;15734;50.904;6.922;2023-02-03T07:38:27;10.00;99.90
28524;DHT22;15734;50.904;6.922;2023-02-03T07:40:53;10.00;99.90
28524;DHT22;15734;50.904;6.922;2023-02-03T07:43:19;10.00;99.90
28524;DHT22;15734;50.904;6.922;2023-02-03T07:45:44;10.00;99.90
28524;DHT22;15734;50.904;6.922;2023-02-03T07:48:10;10.00;99.90
28524;DHT22;15734;50.904;6.922;2023-02-03T07:50:35;10.00;99.90
28524;DHT22;15734;50.904;6.922;2023-02-03T07:53:01;10.00;99.90
28524;DHT22;15734;50.904;6.922;2023-02-03T07:55:26;10.00;99.90
28524;DHT22;15734;50.904;6.922;2023-02-03T08:01:20;10.00;99.90
28524;DHT22;15734;50.904;6.922;2023-02-03T08:16:51;10.00;99.90
28524;DHT22;15734;50.904;6.922;2023-02-03T08:23:06;10.00;99.90
28524;DHT22;15734;50.904;6.922;2023-02-03T08:26:09;10.00;99.90
28524;DHT22;15734;50.904;6.922;2023-02-03T08:50:23;10.20;99.90
28524;DHT22;15734;50.904;6.922;2023-02-03T09:30:03;10.00;99.90
28524;DHT22;15734;50.904;6.922;2023-02-03T09:32:28;10.00;99.90
28524;DHT22;15734;50.904;6.922;2023-02-03T09:34:54;9.90;99.90
28524;DHT22;15734;50.904;6.922;2023-02-03T09:37:19;9.90;99.90
28524;DHT22;15734;50.904;6.922;2023-02-03T09:39:45;9.90;99.90
28524;DHT22;15734;50.904;6.922;2023-02-03T09:44:49;9.90;99.90
28524;DHT22;15734;50.904;6.922;2023-02-03T09:47:22;9.90;99.90
28524;DHT22;15734;50.904;6.922;2023-02-03T09:49:49;9.90;99.90
28524;DHT22;15734;50.904;6.922;2023-02-03T09:52:17;9.90;99.90
28524;DHT22;15734;50.904;6.922;2023-02-03T09:57:22;9.90;99.90
28524;DHT22;15734;50.904;6.922;2023-02-03T09:59:48;9.90;99.90
28524;DHT22;15734;50.904;6.922;2023-02-03T10:04:46;9.90;99.90
28524;DHT22;15734;50.904;6.922;2023-02-03T10:07:17;9.80;99.90
28524;DHT22;15734;50.904;6.922;2023-02-03T10:12:42;9.80;99.90
28524;DHT22;15734;50.904;6.922;2023-02-03T10:15:15;9.80;99.90
28524;DHT22;15734;50.904;6.922;2023-02-03T10:17:47;9.80;99.90
28524;DHT22;15734;50.904;6.922;2023-02-03T10:20:15;9.70;99.90
28524;DHT22;15734;50.904;6.922;2023-02-03T10:25:39;9.70;99.90
28524;DHT22;15734;50.904;6.922;2023-02-03T10:28:16;9.50;99.90
28524;DHT22;15734;50.904;6.922;2023-02-03T10:30:43;9.50;99.90
28524;DHT22;15734;50.904;6.922;2023-02-03T10:33:11;9.50;99.90
28524;DHT22;15734;50.904;6.922;2023-02-03T10:35:50;9.50;99.90
28524;DHT22;15734;50.904;6.922;2023-02-03T10:41:02;9.40;99.90
28524;DHT22;15734;50.904;6.922;2023-02-03T10:43:28;9.40;99.90
28524;DHT22;15734;50.904;6.922;2023-02-03T10:46:19;9.40;99.90
28524;DHT22;15734;50.904;6.922;2023-02-03T10:48:45;9.40;99.90
28524;DHT22;15734;50.904;6.922;2023-02-03T10:51:14;9.40;99.90
28524;DHT22;15734;50.904;6.922;2023-02-03T10:53:42;9.40;99.90
28524;DHT22;15734;50.904;6.922;2023-02-03T10:56:08;9.40;99.90
28524;DHT22;15734;50.904;6.922;2023-02-03T10:58:34;9.30;99.90
28524;DHT22;15734;50.904;6.922;2023-02-03T11:01:05;9.30;99.90
28524;DHT22;15734;50.904;6.922;2023-02-03T11:03:32;9.30;99.90
28524;DHT22;15734;50.904;6.922;2023-02-03T11:06:06;9.30;99.90
28524;DHT22;15734;50.904;6.922;2023-02-03T11:08:32;9.30;99.90
28524;DHT22;15734;50.904;6.922;2023-02-03T11:11:02;9.30;99.90
28524;DHT22;15734;50.904;6.922;2023-02-03T11:13:28;9.40;99.90
28524;DHT22;15734;50.904;6.922;2023-02-03T11:18:53;9.40;99.90
28524;DHT22;15734;50.904;6.922;2023-02-03T11:26:18;9.50;99.90
28524;DHT22;15734;50.904;6.922;2023-02-03T11:28:44;9.50;99.90
28524;DHT22;15734;50.904;6.922;2023-02-03T11:31:21;9.50;99.90
28524;DHT22;15734;50.904;6.922;2023-02-03T11:33:48;9.60;99.90
28524;DHT22;15734;50.904;6.922;2023-02-03T11:36:15;9.60;99.90
28524;DHT22;15734;50.904;6.922;2023-02-03T11:38:41;9.60;99.90
28524;DHT22;15734;50.904;6.922;2023-02-03T11:41:16;9.60;99.90
28524;DHT22;15734;50.904;6.922;2023-02-03T11:43:42;9.60;99.90
28524;DHT22;15734;50.904;6.922;2023-02-03T11:46:08;9.70;99.90
28524;DHT22;15734;50.904;6.922;2023-02-03T11:54:32;9.80;99.90
28524;DHT22;15734;50.904;6.922;2023-02-03T11:56:31;9.80;99.90
28524;DHT22;15734;50.904;6.922;2023-02-03T12:01:36;9.80;99.90
28524;DHT22;15734;50.904;6.922;2023-02-03T12:09:36;9.90;99.90
28524;DHT22;15734;50.904;6.922;2023-02-03T12:17:22;9.90;99.90
28524;DHT22;15734;50.904;6.922;2023-02-03T12:22:38;10.00;99.90
28524;DHT22;15734;50.904;6.922;2023-02-03T12:27:42;10.00;99.90
28524;DHT22;15734;50.904;6.922;2023-02-03T12:30:11;10.10;99.90
28524;DHT22;15734;50.904;6.922;2023-02-03T12:32:44;10.10;99.90
28524;DHT22;15734;50.904;6.922;2023-02-03T12:40:24;10.10;99.90
28524;DHT22;15734;50.904;6.922;2023-02-03T12:42:54;10.10;99.90
28524;DHT22;15734;50.904;6.922;2023-02-03T12:45:28;10.20;99.90
28524;DHT22;15734;50.904;6.922;2023-02-03T12:48:00;10.10;99.90
28524;DHT22;15734;50.904;6.922;2023-02-03T12:50:28;10.20;99.90
28524;DHT22;15734;50.904;6.922;2023-02-03T13:03:10;10.20;99.90
28524;DHT22;15734;50.904;6.922;2023-02-03T13:05:41;10.30;99.90
28524;DHT22;15734;50.904;6.922;2023-02-03T13:08:16;10.30;99.90
28524;DHT22;15734;50.904;6.922;2023-02-03T13:10:54;10.30;99.90
28524;DHT22;15734;50.904;6.922;2023-02-03T13:13:40;10.30;99.90
28524;DHT22;15734;50.904;6.922;2023-02-03T13:16:07;10.30;99.90
28524;DHT22;15734;50.904;6.922;2023-02-03T13:18:35;10.30;99.90
28524;DHT22;15734;50.904;6.922;2023-02-03T13:21:01;10.30;99.90
28524;DHT22;15734;50.904;6.922;2023-02-03T13:23:27;10.30;99.90
28524;DHT22;15734;50.904;6.922;2023-02-03T13:36:19;10.30;99.90
28524;DHT22;15734;50.904;6.922;2023-02-03T13:44:00;10.20;99.90
28524;DHT22;15734;50.904;6.922;2023-02-03T13:46:28;10.10;99.90
28524;DHT22;15734;50.904;6.922;2023-02-03T13:48:55;10.10;99.90
28524;DHT22;15734;50.904;6.922;2023-02-03T13:51:26;10.10;99.90
28524;DHT22;15734;50.904;6.922;2023-02-03T13:53:59;10.10;99.90
28524;DHT22;15734;50.904;6.922;2023-02-03T13:56:25;10.10;99.90
28524;DHT22;15734;50.904;6.922;2023-02-03T13:59:00;10.00;99.90
28524;DHT22;15734;50.904;6.922;2023-02-03T14:01:38;10.00;99.90
28524;DHT22;15734;50.904;6.922;2023-02-03T14:04:08;10.00;99.90
28524;DHT22;15734;50.904;6.922;2023-02-03T14:09:19;9.90;99.90
28524;DHT22;15734;50.904;6.922;2023-02-03T14:11:45;9.90;99.90
28524;DHT22;15734;50.904;6.922;2023-02-03T14:16:36;9.90;99.90
28524;DHT22;15734;50.904;6.922;2023-02-03T14:19:03;9.90;99.90
28524;DHT22;15734;50.904;6.922;2023-02-03T14:24:07;9.90;99.90
28524;DHT22;15734;50.904;6.922;2023-02-03T14:26:34;9.90;99.90
28524;DHT22;15734;50.904;6.922;2023-02-03T14:29:03;9.90;99.90
28524;DHT22;15734;50.904;6.922;2023-02-03T14:31:29;9.90;99.90
28524;DHT22;15734;50.904;6.922;2023-02-03T14:37:07;10.00;99.90
28524;DHT22;15734;50.904;6.922;2023-02-03T14:42:03;10.00;99.90
28524;DHT22;15734;50.904;6.922;2023-02-03T14:44:32;10.10;99.90
28524;DHT22;15734;50.904;6.922;2023-02-03T14:54:44;10.20;99.90
28524;DHT22;15734;50.904;6.922;2023-02-03T14:59:57;10.30;99.90
28524;DHT22;15734;50.904;6.922;2023-02-03T15:02:29;10.30;99.90
28524;DHT22;15734;50.904;6.922;2023-02-03T15:07:43;10.30;99.90
28524;DHT22;15734;50.904;6.922;2023-02-03T15:10:11;10.30;99.90
28524;DHT22;15734;50.904;6.922;2023-02-03T15:12:36;10.40;99.90
28524;DHT22;15734;50.904;6.922;2023-02-03T15:15:18;10.30;99.90
28524;DHT22;15734;50.904;6.922;2023-02-03T15:17:45;10.30;99.90
28524;DHT22;15734;50.904;6.922;2023-02-03T15:20:18;10.30;99.90
28524;DHT22;15734;50.904;6.922;2023-02-03T15:22:48;10.30;99.90
28524;DHT22;15734;50.904;6.922;2023-02-03T15:25:17;10.30;99.90
28524;DHT22;15734;50.904;6.922;2023-02-03T15:27:43;10.30;99.90
28524;DHT22;15734;50.904;6.922;2023-02-03T15:30:15;10.30;99.90
28524;DHT22;15734;50.904;6.922;2023-02-03T15:32:42;10.30;99.90
28524;DHT22;15734;50.904;6.922;2023-02-03T15:35:12;10.30;99.90
28524;DHT22;15734;50.904;6.922;2023-02-03T15:37:42;10.30;99.90
28524;DHT22;15734;50.904;6.922;2023-02-03T15:40:16;10.40;99.90
28524;DHT22;15734;50.904;6.922;2023-02-03T15:42:54;10.40;99.90
28524;DHT22;15734;50.904;6.922;2023-02-03T15:47:47;10.40;99.90
28524;DHT22;15734;50.904;6.922;2023-02-03T15:52:55;10.40;99.90
28524;DHT22;15734;50.904;6.922;2023-02-03T15:55:32;10.40;99.90
28524;DHT22;15734;50.904;6.922;2023-02-03T15:58:00;10.40;99.90
28524;DHT22;15734;50.904;6.922;2023-02-03T16:02:57;10.50;99.90
28524;DHT22;15734;50.904;6.922;2023-02-03T16:05:25;10.50;99.90
28524;DHT22;15734;50.904;6.922;2023-02-03T16:07:51;10.50;99.90
28524;DHT22;15734;50.904;6.922;2023-02-03T16:13:09;10.50;99.90
28524;DHT22;15734;50.904;6.922;2023-02-03T16:15:37;10.50;99.90
28524;DHT22;15734;50.904;6.922;2023-02-03T16:18:03;10.50;99.90
28524;DHT22;15734;50.904;6.922;2023-02-03T16:20:31;10.40;99.90
28524;DHT22;15734;50.904;6.922;2023-02-03T16:23:04;10.40;99.90
28524;DHT22;15734;50.904;6.922;2023-02-03T16:25:31;10.40;99.90
28524;DHT22;15734;50.904;6.922;2023-02-03T16:28:30;10.40;99.90
28524;DHT22;15734;50.904;6.922;2023-02-03T16:31:14;10.40;99.90
28524;DHT22;15734;50.904;6.922;2023-02-03T16:33:59;10.30;99.90
28524;DHT22;15734;50.904;6.922;2023-02-03T16:36:44;10.30;99.90
28524;DHT22;15734;50.904;6.922;2023-02-03T16:39:28;10.20;99.90
28524;DHT22;15734;50.904;6.922;2023-02-03T16:42:14;10.10;99.90
28524;DHT22;15734;50.904;6.922;2023-02-03T16:44:58;10.00;99.90
28524;DHT22;15734;50.904;6.922;2023-02-03T16:47:43;9.90;99.90
28524;DHT22;15734;50.904;6.922;2023-02-03T16:50:27;9.80;99.90
28524;DHT22;15734;50.904;6.922;2023-02-03T16:53:13;9.80;99.90
28524;DHT22;15734;50.904;6.922;2023-02-03T16:55:39;9.70;99.90
28524;DHT22;15734;50.904;6.922;2023-02-03T16:58:05;9.70;99.90
28524;DHT22;15734;50.904;6.922;2023-02-03T17:00:30;9.70;99.90
28524;DHT22;15734;50.904;6.922;2023-02-03T17:02:56;9.70;99.90
28524;DHT22;15734;50.904;6.922;2023-02-03T17:05:21;9.70;99.90
28524;DHT22;15734;50.904;6.922;2023-02-03T17:07:47;9.70;99.90
28524;DHT22;15734;50.904;6.922;2023-02-03T17:10:13;9.60;99.90
28524;DHT22;15734;50.904;6.922;2023-02-03T17:12:39;9.60;99.90
28524;DHT22;15734;50.904;6.922;2023-02-03T17:15:05;9.60;99.90
28524;DHT22;15734;50.904;6.922;2023-02-03T17:17:30;9.60;99.90
28524;DHT22;15734;50.904;6.922;2023-02-03T17:19:56;9.60;99.90
28524;DHT22;15734;50.904;6.922;2023-02-03T17:22:23;9.60;99.90
28524;DHT22;15734;50.904;6.922;2023-02-03T17:24:49;9.60;99.90
28524;DHT22;15734;50.904;6.922;2023-02-03T17:27:15;9.60;99.90
28524;DHT22;15734;50.904;6.922;2023-02-03T17:29:40;9.50;99.90
28524;DHT22;15734;50.904;6.922;2023-02-03T17:32:06;9.50;99.90
28524;DHT22;15734;50.904;6.922;2023-02-03T17:34:32;9.50;99.90
28524;DHT22;15734;50.904;6.922;2023-02-03T17:36:58;9.50;99.90
28524;DHT22;15734;50.904;6.922;2023-02-03T17:39:23;9.50;99.90
28524;DHT22;15734;50.904;6.922;2023-02-03T17:41:50;9.40;99.90
28524;DHT22;15734;50.904;6.922;2023-02-03T17:44:16;9.40;99.90
28524;DHT22;15734;50.904;6.922;2023-02-03T17:46:41;9.40;99.90
28524;DHT22;15734;50.904;6.922;2023-02-03T17:49:08;9.40;99.90
28524;DHT22;15734;50.904;6.922;2023-02-03T17:51:34;9.40;99.90
28524;DHT22;15734;50.904;6.922;2023-02-03T17:53:59;9.40;99.90
28524;DHT22;15734;50.904;6.922;2023-02-03T17:56:30;9.40;99.90
28524;DHT22;15734;50.904;6.922;2023-02-03T17:58:57;9.40;99.90
28524;DHT22;15734;50.904;6.922;2023-02-03T18:01:23;9.40;99.90
28524;DHT22;15734;50.904;6.922;2023-02-03T18:03:51;9.40;99.90
28524;DHT22;15734;50.904;6.922;2023-02-03T18:06:17;9.40;99.90
28524;DHT22;15734;50.904;6.922;2023-02-03T18:08:43;9.40;99.90
28524;DHT22;15734;50.904;6.922;2023-02-03T18:11:09;9.40;99.90
28524;DHT22;15734;50.904;6.922;2023-02-03T18:13:35;9.40;99.90
28524;DHT22;15734;50.904;6.922;2023-02-03T18:16:01;9.40;99.90
28524;DHT22;15734;50.904;6.922;2023-02-03T18:18:27;9.40;99.90
28524;DHT22;15734;50.904;6.922;2023-02-03T18:20:53;9.40;99.90
28524;DHT22;15734;50.904;6.922;2023-02-03T18:23:18;9.40;99.90
28524;DHT22;15734;50.904;6.922;2023-02-03T18:25:45;9.40;99.90
28524;DHT22;15734;50.904;6.922;2023-02-03T18:28:11;9.40;99.90
28524;DHT22;15734;50.904;6.922;2023-02-03T18:30:37;9.40;99.90
28524;DHT22;15734;50.904;6.922;2023-02-03T18:33:03;9.50;99.90
28524;DHT22;15734;50.904;6.922;2023-02-03T18:35:28;9.40;99.90
28524;DHT22;15734;50.904;6.922;2023-02-03T18:37:54;9.40;99.90
28524;DHT22;15734;50.904;6.922;2023-02-03T18:40:20;9.50;99.90
28524;DHT22;15734;50.904;6.922;2023-02-03T18:42:45;9.50;99.90
28524;DHT22;15734;50.904;6.922;2023-02-03T18:45:11;9.50;99.90
28524;DHT22;15734;50.904;6.922;2023-02-03T18:47:36;9.50;99.90
28524;DHT22;15734;50.904;6.922;2023-02-03T18:50:02;9.50;99.90
28524;DHT22;15734;50.904;6.922;2023-02-03T18:52:27;9.50;99.90
28524;DHT22;15734;50.904;6.922;2023-02-03T18:54:53;9.50;99.90
28524;DHT22;15734;50.904;6.922;2023-02-03T18:57:19;9.50;99.90
28524;DHT22;15734;50.904;6.922;2023-02-03T18:59:46;9.60;99.90
28524;DHT22;15734;50.904;6.922;2023-02-03T19:02:12;9.60;99.90
28524;DHT22;15734;50.904;6.922;2023-02-03T19:04:37;9.70;99.90
28524;DHT22;15734;50.904;6.922;2023-02-03T19:07:03;9.60;99.90
28524;DHT22;15734;50.904;6.922;2023-02-03T19:09:28;9.60;99.90
28524;DHT22;15734;50.904;6.922;2023-02-03T19:11:54;9.60;99.90
28524;DHT22;15734;50.904;6.922;2023-02-03T19:14:23;9.60;99.90
28524;DHT22;15734;50.904;6.922;2023-02-03T19:16:49;9.70;99.90
28524;DHT22;15734;50.904;6.922;2023-02-03T19:19:17;9.70;99.90
28524;DHT22;15734;50.904;6.922;2023-02-03T19:21:43;9.70;99.90
28524;DHT22;15734;50.904;6.922;2023-02-03T19:24:10;9.70;99.90
28524;DHT22;15734;50.904;6.922;2023-02-03T19:26:36;9.70;99.90
28524;DHT22;15734;50.904;6.922;2023-02-03T19:29:01;9.70;99.90